sensor_id;sensor_type;location;lat;lon;timestamp;temperature;humidity
35894;DHT22;21994;48.204;16.516;2023-04-25T00:01:21;11.30;99.90
35894;DHT22;21994;48.204;16.516;2023-04-25T00:03:47;11.30;99.90
35894;DHT22;21994;48.204;16.516;2023-04-25T00:06:14;11.20;99.90
35894;DHT22;21994;48.204;16.516;2023-04-25T00:08:40;11.20;99.90
35894;DHT22;21994;48.204;16.516;2023-04-25T00:11:06;11.30;99.90
35894;DHT22;21994;48.204;16.516;2023-04-25T00:13:32;11.30;99.90
35894;DHT22;21994;48.204;16.516;2023-04-25T00:15:59;11.20;99.90
35894;DHT22;21994;48.204;16.516;2023-04-25T00:18:25;11.20;99.90
35894;DHT22;21994;48.204;16.516;2023-04-25T00:20:54;11.20;99.90
35894;DHT22;21994;48.204;16.516;2023-04-25T00:23:21;11.20;99.90
35894;DHT22;21994;48.204;16.516;2023-04-25T00:25:48;11.30;99.90
35894;DHT22;21994;48.204;16.516;2023-04-25T00:28:15;11.20;99.90
35894;DHT22;21994;48.204;16.516;2023-04-25T00:30:42;11.10;99.90
35894;DHT22;21994;48.204;16.516;2023-04-25T00:33:09;11.10;99.90
35894;DHT22;21994;48.204;16.516;2023-04-25T00:35:35;11.10;99.90
35894;DHT22;21994;48.204;16.516;2023-04-25T00:38:01;11.10;99.90
35894;DHT22;21994;48.204;16.516;2023-04-25T00:40:28;11.10;99.90
35894;DHT22;21994;48.204;16.516;2023-04-25T00:42:54;11.00;99.90
35894;DHT22;21994;48.204;16.516;2023-04-25T00:45:20;11.10;99.90
35894;DHT22;21994;48.204;16.516;2023-04-25T00:47:46;11.10;99.90
35894;DHT22;21994;48.204;16.516;2023-04-25T00:50:15;11.00;99.90
35894;DHT22;21994;48.204;16.516;2023-04-25T00:52:44;11.00;99.90
35894;DHT22;21994;48.204;16.516;2023-04-25T00:55:11;11.10;99.90
35894;DHT22;21994;48.204;16.516;2023-04-25T00:57:38;11.00;99.90
35894;DHT22;21994;48.204;16.516;2023-04-25T01:00:06;11.00;99.90
35894;DHT22;21994;48.204;16.516;2023-04-25T01:02:35;10.90;99.90
35894;DHT22;21994;48.204;16.516;2023-04-25T01:05:02;11.00;99.90
35894;DHT22;21994;48.204;16.516;2023-04-25T01:07:28;11.00;99.90
35894;DHT22;21994;48.204;16.516;2023-04-25T01:09:54;10.90;99.90
35894;DHT22;21994;48.204;16.516;2023-04-25T01:12:20;10.90;99.90
35894;DHT22;21994;48.204;16.516;2023-04-25T01:14:46;10.90;99.90
35894;DHT22;21994;48.204;16.516;2023-04-25T01:17:13;10.90;99.90
35894;DHT22;21994;48.204;16.516;2023-04-25T01:19:40;10.90;99.90
35894;DHT22;21994;48.204;16.516;2023-04-25T01:22:07;10.90;99.90
35894;DHT22;21994;48.204;16.516;2023-04-25T01:24:35;10.90;99.90
35894;DHT22;21994;48.204;16.516;2023-04-25T01:27:02;10.90;99.90
35894;DHT22;21994;48.204;16.516;2023-04-25T01:29:29;10.90;99.90
35894;DHT22;21994;48.204;16.516;2023-04-25T01:31:55;10.80;99.90
35894;DHT22;21994;48.204;16.516;2023-04-25T01:34:22;10.90;99.90
35894;DHT22;21994;48.204;16.516;2023-04-25T01:36:49;10.90;99.90
35894;DHT22;21994;48.204;16.516;2023-04-25T01:39:17;10.90;99.90
35894;DHT22;21994;48.204;16.516;2023-04-25T01:41:44;10.90;99.90
35894;DHT22;21994;48.204;16.516;2023-04-25T01:44:11;10.80;99.90
35894;DHT22;21994;48.204;16.516;2023-04-25T01:46:37;10.80;99.90
35894;DHT22;21994;48.204;16.516;2023-04-25T01:49:03;10.80;99.90
35894;DHT22;21994;48.204;16.516;2023-04-25T01:51:29;10.80;99.90
35894;DHT22;21994;48.204;16.516;2023-04-25T01:53:56;10.80;99.90
35894;DHT22;21994;48.204;16.516;2023-04-25T01:56:23;10.90;99.90
35894;DHT22;21994;48.204;16.516;2023-04-25T01:58:49;10.90;99.90
35894;DHT22;21994;48.204;16.516;2023-04-25T02:01:15;10.80;99.90
35894;DHT22;21994;48.204;16.516;2023-04-25T02:03:41;10.90;99.90
35894;DHT22;21994;48.204;16.516;2023-04-25T02:06:08;10.90;99.90
35894;DHT22;21994;48.204;16.516;2023-04-25T02:08:34;10.90;99.90
35894;DHT22;21994;48.204;16.516;2023-04-25T02:11:00;11.00;99.90
35894;DHT22;21994;48.204;16.516;2023-04-25T02:13:26;11.00;99.90
35894;DHT22;21994;48.204;16.516;2023-04-25T02:15:52;10.90;99.90
35894;DHT22;21994;48.204;16.516;2023-04-25T02:18:17;10.90;99.90
35894;DHT22;21994;48.204;16.516;2023-04-25T02:20:44;10.90;99.90
35894;DHT22;21994;48.204;16.516;2023-04-25T02:23:11;10.90;99.90
35894;DHT22;21994;48.204;16.516;2023-04-25T02:25:36;11.00;99.90
35894;DHT22;21994;48.204;16.516;2023-04-25T02:28:02;11.00;99.90
35894;DHT22;21994;48.204;16.516;2023-04-25T02:30:28;10.90;99.90
35894;DHT22;21994;48.204;16.516;2023-04-25T02:32:54;10.90;99.90
35894;DHT22;21994;48.204;16.516;2023-04-25T02:35:20;11.00;99.90
35894;DHT22;21994;48.204;16.516;2023-04-25T02:37:46;10.90;99.90
35894;DHT22;21994;48.204;16.516;2023-04-25T02:40:12;10.90;99.90
35894;DHT22;21994;48.204;16.516;2023-04-25T02:42:38;10.80;99.90
35894;DHT22;21994;48.204;16.516;2023-04-25T02:45:05;10.80;99.90
35894;DHT22;21994;48.204;16.516;2023-04-25T02:47:31;10.70;99.90
35894;DHT22;21994;48.204;16.516;2023-04-25T02:49:57;10.60;99.90
35894;DHT22;21994;48.204;16.516;2023-04-25T02:52:23;10.60;99.90
35894;DHT22;21994;48.204;16.516;2023-04-25T02:54:49;10.60;99.90
35894;DHT22;21994;48.204;16.516;2023-04-25T02:57:14;10.60;99.90
35894;DHT22;21994;48.204;16.516;2023-04-25T02:59:40;10.50;99.90
35894;DHT22;21994;48.204;16.516;2023-04-25T03:02:06;10.50;99.90
35894;DHT22;21994;48.204;16.516;2023-04-25T03:04:32;10.40;99.90
35894;DHT22;21994;48.204;16.516;2023-04-25T03:06:59;10.40;99.90
35894;DHT22;21994;48.204;16.516;2023-04-25T03:09:25;10.40;99.90
35894;DHT22;21994;48.204;16.516;2023-04-25T03:11:50;10.40;99.90
35894;DHT22;21994;48.204;16.516;2023-04-25T03:14:16;10.30;99.90
35894;DHT22;21994;48.204;16.516;2023-04-25T03:16:42;10.20;99.90
35894;DHT22;21994;48.204;16.516;2023-04-25T03:19:08;10.20;99.90
35894;DHT22;21994;48.204;16.516;2023-04-25T03:21:35;10.20;99.90
35894;DHT22;21994;48.204;16.516;2023-04-25T03:24:03;10.20;99.90
35894;DHT22;21994;48.204;16.516;2023-04-25T03:26:29;10.20;99.90
35894;DHT22;21994;48.204;16.516;2023-04-25T03:28:56;10.20;99.90
35894;DHT22;21994;48.204;16.516;2023-04-25T03:31:22;10.20;99.90
35894;DHT22;21994;48.204;16.516;2023-04-25T03:33:48;10.30;99.90
35894;DHT22;21994;48.204;16.516;2023-04-25T03:36:14;10.30;99.90
35894;DHT22;21994;48.204;16.516;2023-04-25T03:38:40;10.20;99.90
35894;DHT22;21994;48.204;16.516;2023-04-25T03:41:07;10.20;99.90
35894;DHT22;21994;48.204;16.516;2023-04-25T03:43:33;10.20;99.90
35894;DHT22;21994;48.204;16.516;2023-04-25T03:46:00;10.10;99.90
35894;DHT22;21994;48.204;16.516;2023-04-25T03:48:26;10.10;99.90
35894;DHT22;21994;48.204;16.516;2023-04-25T03:50:53;10.00;99.90
35894;DHT22;21994;48.204;16.516;2023-04-25T03:53:20;10.00;99.90
35894;DHT22;21994;48.204;16.516;2023-04-25T03:55:45;10.00;99.90
35894;DHT22;21994;48.204;16.516;2023-04-25T03:58:11;10.00;99.90
35894;DHT22;21994;48.204;16.516;2023-04-25T04:00:37;10.00;99.90
35894;DHT22;21994;48.204;16.516;2023-04-25T04:03:13;9.90;99.90
35894;DHT22;21994;48.204;16.516;2023-04-25T04:05:38;9.90;99.90
35894;DHT22;21994;48.204;16.516;2023-04-25T04:08:06;9.90;99.90
35894;DHT22;21994;48.204;16.516;2023-04-25T04:10:32;9.90;99.90
35894;DHT22;21994;48.204;16.516;2023-04-25T04:12:58;9.90;99.90
35894;DHT22;21994;48.204;16.516;2023-04-25T04:15:24;9.80;99.90
35894;DHT22;21994;48.204;16.516;2023-04-25T04:17:50;9.80;99.90
35894;DHT22;21994;48.204;16.516;2023-04-25T04:20:16;9.80;99.90
35894;DHT22;21994;48.204;16.516;2023-04-25T04:22:42;9.80;99.90
35894;DHT22;21994;48.204;16.516;2023-04-25T04:25:08;9.80;99.90
35894;DHT22;21994;48.204;16.516;2023-04-25T04:27:35;9.80;99.90
35894;DHT22;21994;48.204;16.516;2023-04-25T04:30:01;9.80;99.90
35894;DHT22;21994;48.204;16.516;2023-04-25T04:32:28;9.70;99.90
35894;DHT22;21994;48.204;16.516;2023-04-25T04:34:56;9.70;99.90
35894;DHT22;21994;48.204;16.516;2023-04-25T04:37:22;9.70;99.90
35894;DHT22;21994;48.204;16.516;2023-04-25T04:39:49;9.70;99.90
35894;DHT22;21994;48.204;16.516;2023-04-25T04:42:15;9.70;99.90
35894;DHT22;21994;48.204;16.516;2023-04-25T04:44:41;9.70;99.90
35894;DHT22;21994;48.204;16.516;2023-04-25T04:47:10;9.70;99.90
35894;DHT22;21994;48.204;16.516;2023-04-25T04:49:36;9.70;99.90
35894;DHT22;21994;48.204;16.516;2023-04-25T04:52:02;9.70;99.90
35894;DHT22;21994;48.204;16.516;2023-04-25T04:54:28;9.70;99.90
35894;DHT22;21994;48.204;16.516;2023-04-25T04:56:53;9.70;99.90
35894;DHT22;21994;48.204;16.516;2023-04-25T04:59:20;9.70;99.90
35894;DHT22;21994;48.204;16.516;2023-04-25T05:01:46;9.70;99.90
35894;DHT22;21994;48.204;16.516;2023-04-25T05:04:12;9.70;99.90
35894;DHT22;21994;48.204;16.516;2023-04-25T05:06:38;9.70;99.90
35894;DHT22;21994;48.204;16.516;2023-04-25T05:09:04;9.70;99.90
35894;DHT22;21994;48.204;16.516;2023-04-25T05:11:30;9.60;99.90
35894;DHT22;21994;48.204;16.516;2023-04-25T05:13:56;9.60;99.90
35894;DHT22;21994;48.204;16.516;2023-04-25T05:16:22;9.50;99.90
35894;DHT22;21994;48.204;16.516;2023-04-25T05:18:48;9.50;99.90
35894;DHT22;21994;48.204;16.516;2023-04-25T05:21:14;9.50;99.90
35894;DHT22;21994;48.204;16.516;2023-04-25T05:23:39;9.50;99.90
35894;DHT22;21994;48.204;16.516;2023-04-25T05:26:05;9.50;99.90
35894;DHT22;21994;48.204;16.516;2023-04-25T05:28:31;9.50;99.90
35894;DHT22;21994;48.204;16.516;2023-04-25T05:30:57;9.40;99.90
35894;DHT22;21994;48.204;16.516;2023-04-25T05:33:23;9.40;99.90
35894;DHT22;21994;48.204;16.516;2023-04-25T05:35:49;9.30;99.90
35894;DHT22;21994;48.204;16.516;2023-04-25T05:38:15;9.20;99.90
35894;DHT22;21994;48.204;16.516;2023-04-25T05:40:41;9.30;99.90
35894;DHT22;21994;48.204;16.516;2023-04-25T05:43:07;9.30;99.90
35894;DHT22;21994;48.204;16.516;2023-04-25T05:45:33;9.30;99.90
35894;DHT22;21994;48.204;16.516;2023-04-25T05:47:59;9.40;99.90
35894;DHT22;21994;48.204;16.516;2023-04-25T05:50:25;9.40;99.90
35894;DHT22;21994;48.204;16.516;2023-04-25T05:52:51;9.40;99.90
35894;DHT22;21994;48.204;16.516;2023-04-25T05:55:17;9.40;99.90
35894;DHT22;21994;48.204;16.516;2023-04-25T05:57:43;9.30;99.90
35894;DHT22;21994;48.204;16.516;2023-04-25T06:00:13;9.40;99.90
35894;DHT22;21994;48.204;16.516;2023-04-25T06:02:41;9.40;99.90
35894;DHT22;21994;48.204;16.516;2023-04-25T06:05:10;9.50;99.90
35894;DHT22;21994;48.204;16.516;2023-04-25T06:07:36;9.60;99.90
35894;DHT22;21994;48.204;16.516;2023-04-25T06:10:02;9.70;99.90
35894;DHT22;21994;48.204;16.516;2023-04-25T06:12:32;9.80;99.90
35894;DHT22;21994;48.204;16.516;2023-04-25T06:14:59;9.90;99.90
35894;DHT22;21994;48.204;16.516;2023-04-25T06:17:25;10.00;99.90
35894;DHT22;21994;48.204;16.516;2023-04-25T06:19:51;10.10;99.90
35894;DHT22;21994;48.204;16.516;2023-04-25T06:22:17;10.20;99.90
35894;DHT22;21994;48.204;16.516;2023-04-25T06:24:43;10.30;99.90
35894;DHT22;21994;48.204;16.516;2023-04-25T06:27:09;10.30;99.90
35894;DHT22;21994;48.204;16.516;2023-04-25T06:29:35;10.50;99.90
35894;DHT22;21994;48.204;16.516;2023-04-25T06:32:00;10.50;99.90
35894;DHT22;21994;48.204;16.516;2023-04-25T06:34:26;10.60;99.90
35894;DHT22;21994;48.204;16.516;2023-04-25T06:36:52;10.70;99.90
35894;DHT22;21994;48.204;16.516;2023-04-25T06:39:18;10.80;99.90
35894;DHT22;21994;48.204;16.516;2023-04-25T06:41:45;10.80;99.90
35894;DHT22;21994;48.204;16.516;2023-04-25T06:44:11;10.90;99.90
35894;DHT22;21994;48.204;16.516;2023-04-25T06:46:37;11.10;99.90
35894;DHT22;21994;48.204;16.516;2023-04-25T06:49:03;11.20;99.90
35894;DHT22;21994;48.204;16.516;2023-04-25T06:51:30;11.20;99.90
35894;DHT22;21994;48.204;16.516;2023-04-25T06:53:56;11.40;99.90
35894;DHT22;21994;48.204;16.516;2023-04-25T06:56:21;11.40;99.90
35894;DHT22;21994;48.204;16.516;2023-04-25T06:58:49;11.50;99.90
35894;DHT22;21994;48.204;16.516;2023-04-25T07:01:15;11.60;99.90
35894;DHT22;21994;48.204;16.516;2023-04-25T07:03:41;11.70;99.90
35894;DHT22;21994;48.204;16.516;2023-04-25T07:06:07;11.80;99.90
35894;DHT22;21994;48.204;16.516;2023-04-25T07:08:33;11.70;99.90
35894;DHT22;21994;48.204;16.516;2023-04-25T07:10:58;11.80;99.90
35894;DHT22;21994;48.204;16.516;2023-04-25T07:13:24;11.90;99.90
35894;DHT22;21994;48.204;16.516;2023-04-25T07:15:50;12.00;99.40
35894;DHT22;21994;48.204;16.516;2023-04-25T07:18:16;12.10;99.90
35894;DHT22;21994;48.204;16.516;2023-04-25T07:20:42;12.20;99.90
35894;DHT22;21994;48.204;16.516;2023-04-25T07:23:08;12.30;99.70
35894;DHT22;21994;48.204;16.516;2023-04-25T07:25:34;12.60;99.50
35894;DHT22;21994;48.204;16.516;2023-04-25T07:28:00;12.90;98.80
35894;DHT22;21994;48.204;16.516;2023-04-25T07:30:26;12.90;98.90
35894;DHT22;21994;48.204;16.516;2023-04-25T07:32:52;12.90;98.90
35894;DHT22;21994;48.204;16.516;2023-04-25T07:35:18;13.10;99.30
35894;DHT22;21994;48.204;16.516;2023-04-25T07:37:47;13.50;98.00
35894;DHT22;21994;48.204;16.516;2023-04-25T07:40:13;13.80;97.60
35894;DHT22;21994;48.204;16.516;2023-04-25T07:42:44;14.20;97.50
35894;DHT22;21994;48.204;16.516;2023-04-25T07:45:10;14.40;96.90
35894;DHT22;21994;48.204;16.516;2023-04-25T07:47:37;14.50;97.20
35894;DHT22;21994;48.204;16.516;2023-04-25T07:50:04;14.90;96.80
35894;DHT22;21994;48.204;16.516;2023-04-25T07:52:37;15.10;97.00
35894;DHT22;21994;48.204;16.516;2023-04-25T07:55:03;15.50;96.80
35894;DHT22;21994;48.204;16.516;2023-04-25T07:57:29;15.60;96.50
35894;DHT22;21994;48.204;16.516;2023-04-25T07:59:55;15.80;96.50
35894;DHT22;21994;48.204;16.516;2023-04-25T08:02:21;16.10;95.10
35894;DHT22;21994;48.204;16.516;2023-04-25T08:04:47;16.40;95.00
35894;DHT22;21994;48.204;16.516;2023-04-25T08:07:15;16.70;95.30
35894;DHT22;21994;48.204;16.516;2023-04-25T08:09:41;16.50;94.00
35894;DHT22;21994;48.204;16.516;2023-04-25T08:12:06;16.40;95.20
35894;DHT22;21994;48.204;16.516;2023-04-25T08:14:32;16.80;93.90
35894;DHT22;21994;48.204;16.516;2023-04-25T08:17:04;16.60;94.00
35894;DHT22;21994;48.204;16.516;2023-04-25T08:19:30;16.50;93.30
35894;DHT22;21994;48.204;16.516;2023-04-25T08:21:56;16.70;93.90
35894;DHT22;21994;48.204;16.516;2023-04-25T08:24:23;16.90;93.20
35894;DHT22;21994;48.204;16.516;2023-04-25T08:26:49;17.20;93.80
35894;DHT22;21994;48.204;16.516;2023-04-25T08:29:15;17.40;94.00
35894;DHT22;21994;48.204;16.516;2023-04-25T08:31:41;17.40;91.60
35894;DHT22;21994;48.204;16.516;2023-04-25T08:34:07;17.50;93.00
35894;DHT22;21994;48.204;16.516;2023-04-25T08:36:33;17.20;92.00
35894;DHT22;21994;48.204;16.516;2023-04-25T08:38:59;16.80;92.80
35894;DHT22;21994;48.204;16.516;2023-04-25T08:41:25;16.20;92.20
35894;DHT22;21994;48.204;16.516;2023-04-25T08:43:53;16.00;93.30
35894;DHT22;21994;48.204;16.516;2023-04-25T08:46:19;15.70;93.30
35894;DHT22;21994;48.204;16.516;2023-04-25T08:48:46;15.50;93.80
35894;DHT22;21994;48.204;16.516;2023-04-25T08:51:22;16.40;93.60
35894;DHT22;21994;48.204;16.516;2023-04-25T08:53:53;16.90;92.90
35894;DHT22;21994;48.204;16.516;2023-04-25T08:56:19;17.60;91.90
35894;DHT22;21994;48.204;16.516;2023-04-25T08:58:48;18.20;91.20
35894;DHT22;21994;48.204;16.516;2023-04-25T09:01:17;18.40;92.00
35894;DHT22;21994;48.204;16.516;2023-04-25T09:03:44;19.00;90.50
35894;DHT22;21994;48.204;16.516;2023-04-25T09:06:12;19.10;88.00
35894;DHT22;21994;48.204;16.516;2023-04-25T09:08:39;18.90;90.10
35894;DHT22;21994;48.204;16.516;2023-04-25T09:11:06;18.20;89.50
35894;DHT22;21994;48.204;16.516;2023-04-25T09:13:33;17.60;90.60
35894;DHT22;21994;48.204;16.516;2023-04-25T09:15:58;18.20;90.80
35894;DHT22;21994;48.204;16.516;2023-04-25T09:18:32;19.30;87.80
35894;DHT22;21994;48.204;16.516;2023-04-25T09:21:09;19.80;90.00
35894;DHT22;21994;48.204;16.516;2023-04-25T09:23:41;20.00;85.80
35894;DHT22;21994;48.204;16.516;2023-04-25T09:26:09;19.00;87.00
35894;DHT22;21994;48.204;16.516;2023-04-25T09:28:36;18.00;90.00
35894;DHT22;21994;48.204;16.516;2023-04-25T09:31:03;17.20;90.80
35894;DHT22;21994;48.204;16.516;2023-04-25T09:33:31;17.50;92.10
35894;DHT22;21994;48.204;16.516;2023-04-25T09:38:40;19.80;88.30
35894;DHT22;21994;48.204;16.516;2023-04-25T09:41:08;19.40;88.10
35894;DHT22;21994;48.204;16.516;2023-04-25T09:43:35;19.20;86.50
35894;DHT22;21994;48.204;16.516;2023-04-25T09:46:02;18.40;87.50
35894;DHT22;21994;48.204;16.516;2023-04-25T09:48:28;17.40;90.40
35894;DHT22;21994;48.204;16.516;2023-04-25T09:51:21;16.90;90.00
35894;DHT22;21994;48.204;16.516;2023-04-25T09:53:52;16.40;90.20
35894;DHT22;21994;48.204;16.516;2023-04-25T09:56:18;15.90;91.60
35894;DHT22;21994;48.204;16.516;2023-04-25T09:58:47;15.70;92.60
35894;DHT22;21994;48.204;16.516;2023-04-25T10:01:15;15.40;93.20
35894;DHT22;21994;48.204;16.516;2023-04-25T10:03:43;14.90;93.60
35894;DHT22;21994;48.204;16.516;2023-04-25T10:06:16;14.70;94.80
35894;DHT22;21994;48.204;16.516;2023-04-25T10:08:45;14.70;94.90
35894;DHT22;21994;48.204;16.516;2023-04-25T10:11:16;14.70;95.00
35894;DHT22;21994;48.204;16.516;2023-04-25T10:13:43;14.60;96.10
35894;DHT22;21994;48.204;16.516;2023-04-25T10:16:10;14.40;95.30
35894;DHT22;21994;48.204;16.516;2023-04-25T10:18:37;14.30;96.00
35894;DHT22;21994;48.204;16.516;2023-04-25T10:21:04;13.60;95.30
35894;DHT22;21994;48.204;16.516;2023-04-25T10:23:32;13.30;98.50
35894;DHT22;21994;48.204;16.516;2023-04-25T10:26:00;12.70;99.70
35894;DHT22;21994;48.204;16.516;2023-04-25T10:28:26;12.40;99.90
35894;DHT22;21994;48.204;16.516;2023-04-25T10:30:58;12.30;99.90
35894;DHT22;21994;48.204;16.516;2023-04-25T10:33:39;12.30;99.90
35894;DHT22;21994;48.204;16.516;2023-04-25T10:36:21;12.40;99.90
35894;DHT22;21994;48.204;16.516;2023-04-25T10:38:49;12.40;99.90
35894;DHT22;21994;48.204;16.516;2023-04-25T10:41:18;13.30;99.90
35894;DHT22;21994;48.204;16.516;2023-04-25T10:43:50;14.70;99.20
35894;DHT22;21994;48.204;16.516;2023-04-25T10:46:27;15.90;93.60
35894;DHT22;21994;48.204;16.516;2023-04-25T10:48:59;17.60;96.20
35894;DHT22;21994;48.204;16.516;2023-04-25T10:51:28;19.30;90.70
35894;DHT22;21994;48.204;16.516;2023-04-25T10:54:06;20.70;89.80
35894;DHT22;21994;48.204;16.516;2023-04-25T10:56:41;20.90;80.80
35894;DHT22;21994;48.204;16.516;2023-04-25T10:59:17;21.40;85.20
35894;DHT22;21994;48.204;16.516;2023-04-25T11:01:49;23.20;75.90
35894;DHT22;21994;48.204;16.516;2023-04-25T11:09:33;23.20;73.40
35894;DHT22;21994;48.204;16.516;2023-04-25T11:11:59;21.90;75.90
35894;DHT22;21994;48.204;16.516;2023-04-25T11:14:26;21.60;73.70
35894;DHT22;21994;48.204;16.516;2023-04-25T11:16:53;21.00;74.80
35894;DHT22;21994;48.204;16.516;2023-04-25T11:19:21;20.70;73.70
35894;DHT22;21994;48.204;16.516;2023-04-25T11:21:48;20.60;76.70
35894;DHT22;21994;48.204;16.516;2023-04-25T11:24:14;21.10;82.70
35894;DHT22;21994;48.204;16.516;2023-04-25T11:26:43;20.90;76.10
35894;DHT22;21994;48.204;16.516;2023-04-25T11:29:09;20.80;73.50
35894;DHT22;21994;48.204;16.516;2023-04-25T11:31:35;20.70;76.40
35894;DHT22;21994;48.204;16.516;2023-04-25T11:34:01;20.70;76.20
35894;DHT22;21994;48.204;16.516;2023-04-25T11:36:28;20.10;76.60
35894;DHT22;21994;48.204;16.516;2023-04-25T11:38:54;19.90;83.80
35894;DHT22;21994;48.204;16.516;2023-04-25T11:41:20;19.60;75.70
35894;DHT22;21994;48.204;16.516;2023-04-25T11:43:48;18.80;80.70
35894;DHT22;21994;48.204;16.516;2023-04-25T11:46:19;18.20;80.90
35894;DHT22;21994;48.204;16.516;2023-04-25T11:48:45;17.30;82.80
35894;DHT22;21994;48.204;16.516;2023-04-25T11:51:12;16.80;86.40
35894;DHT22;21994;48.204;16.516;2023-04-25T11:53:41;16.40;90.00
35894;DHT22;21994;48.204;16.516;2023-04-25T11:56:11;15.90;95.10
35894;DHT22;21994;48.204;16.516;2023-04-25T11:59:01;15.30;97.30
35894;DHT22;21994;48.204;16.516;2023-04-25T12:01:38;14.80;97.80
35894;DHT22;21994;48.204;16.516;2023-04-25T12:04:20;13.80;97.00
35894;DHT22;21994;48.204;16.516;2023-04-25T12:06:49;13.00;97.60
35894;DHT22;21994;48.204;16.516;2023-04-25T12:09:20;12.70;98.40
35894;DHT22;21994;48.204;16.516;2023-04-25T12:11:56;12.60;99.30
35894;DHT22;21994;48.204;16.516;2023-04-25T12:14:32;12.70;99.80
35894;DHT22;21994;48.204;16.516;2023-04-25T12:17:00;12.90;99.90
35894;DHT22;21994;48.204;16.516;2023-04-25T12:19:37;13.10;98.80
35894;DHT22;21994;48.204;16.516;2023-04-25T12:22:21;13.20;99.20
35894;DHT22;21994;48.204;16.516;2023-04-25T12:24:48;13.40;98.90
35894;DHT22;21994;48.204;16.516;2023-04-25T12:27:15;13.40;98.50
35894;DHT22;21994;48.204;16.516;2023-04-25T12:29:56;13.40;97.60
35894;DHT22;21994;48.204;16.516;2023-04-25T12:32:23;13.50;98.80
35894;DHT22;21994;48.204;16.516;2023-04-25T12:34:49;13.80;98.00
35894;DHT22;21994;48.204;16.516;2023-04-25T12:37:15;14.10;97.90
35894;DHT22;21994;48.204;16.516;2023-04-25T12:39:41;14.40;97.70
35894;DHT22;21994;48.204;16.516;2023-04-25T12:42:07;14.90;96.90
35894;DHT22;21994;48.204;16.516;2023-04-25T12:44:33;15.40;98.20
35894;DHT22;21994;48.204;16.516;2023-04-25T12:47:00;15.90;96.20
35894;DHT22;21994;48.204;16.516;2023-04-25T12:49:26;16.20;94.50
35894;DHT22;21994;48.204;16.516;2023-04-25T12:51:52;16.40;93.60
35894;DHT22;21994;48.204;16.516;2023-04-25T12:54:18;16.80;95.00
35894;DHT22;21994;48.204;16.516;2023-04-25T12:56:43;17.10;93.20
35894;DHT22;21994;48.204;16.516;2023-04-25T12:59:09;17.00;92.40
35894;DHT22;21994;48.204;16.516;2023-04-25T13:01:35;16.90;92.70
35894;DHT22;21994;48.204;16.516;2023-04-25T13:04:01;16.40;91.10
35894;DHT22;21994;48.204;16.516;2023-04-25T13:06:27;15.80;91.90
35894;DHT22;21994;48.204;16.516;2023-04-25T13:08:55;15.70;91.80
35894;DHT22;21994;48.204;16.516;2023-04-25T13:11:21;16.00;93.60
35894;DHT22;21994;48.204;16.516;2023-04-25T13:13:47;16.60;92.50
35894;DHT22;21994;48.204;16.516;2023-04-25T13:16:13;17.00;91.70
35894;DHT22;21994;48.204;16.516;2023-04-25T13:18:40;17.20;90.30
35894;DHT22;21994;48.204;16.516;2023-04-25T13:21:06;17.30;92.90
35894;DHT22;21994;48.204;16.516;2023-04-25T13:23:33;17.30;90.00
35894;DHT22;21994;48.204;16.516;2023-04-25T13:25:59;17.40;89.20
35894;DHT22;21994;48.204;16.516;2023-04-25T13:28:27;17.50;88.30
35894;DHT22;21994;48.204;16.516;2023-04-25T13:30:54;17.50;88.60
35894;DHT22;21994;48.204;16.516;2023-04-25T13:33:20;17.60;87.90
35894;DHT22;21994;48.204;16.516;2023-04-25T13:35:48;17.70;90.20
35894;DHT22;21994;48.204;16.516;2023-04-25T13:38:23;18.00;88.00
35894;DHT22;21994;48.204;16.516;2023-04-25T13:40:51;18.10;86.20
35894;DHT22;21994;48.204;16.516;2023-04-25T13:43:21;18.10;84.70
35894;DHT22;21994;48.204;16.516;2023-04-25T13:45:48;18.10;85.80
35894;DHT22;21994;48.204;16.516;2023-04-25T13:48:15;18.20;82.50
35894;DHT22;21994;48.204;16.516;2023-04-25T13:50:41;18.10;83.10
35894;DHT22;21994;48.204;16.516;2023-04-25T13:53:07;18.10;80.80
35894;DHT22;21994;48.204;16.516;2023-04-25T13:55:34;18.20;81.90
35894;DHT22;21994;48.204;16.516;2023-04-25T13:58:04;18.10;80.50
35894;DHT22;21994;48.204;16.516;2023-04-25T14:00:42;18.20;79.90
35894;DHT22;21994;48.204;16.516;2023-04-25T14:03:13;18.10;82.90
35894;DHT22;21994;48.204;16.516;2023-04-25T14:05:39;18.20;80.40
35894;DHT22;21994;48.204;16.516;2023-04-25T14:08:06;17.60;80.40
35894;DHT22;21994;48.204;16.516;2023-04-25T14:10:33;17.30;80.30
35894;DHT22;21994;48.204;16.516;2023-04-25T14:12:59;16.90;80.10
35894;DHT22;21994;48.204;16.516;2023-04-25T14:15:26;16.60;82.30
35894;DHT22;21994;48.204;16.516;2023-04-25T14:17:52;16.60;81.30
35894;DHT22;21994;48.204;16.516;2023-04-25T14:20:18;16.50;85.00
35894;DHT22;21994;48.204;16.516;2023-04-25T14:22:46;16.50;87.60
35894;DHT22;21994;48.204;16.516;2023-04-25T14:25:12;16.00;91.10
35894;DHT22;21994;48.204;16.516;2023-04-25T14:27:38;15.50;92.70
35894;DHT22;21994;48.204;16.516;2023-04-25T14:30:05;15.30;94.00
35894;DHT22;21994;48.204;16.516;2023-04-25T14:32:32;15.10;95.10
35894;DHT22;21994;48.204;16.516;2023-04-25T14:34:57;15.00;94.60
35894;DHT22;21994;48.204;16.516;2023-04-25T14:37:23;14.60;95.20
35894;DHT22;21994;48.204;16.516;2023-04-25T14:39:49;14.20;97.20
35894;DHT22;21994;48.204;16.516;2023-04-25T14:42:15;14.10;98.40
35894;DHT22;21994;48.204;16.516;2023-04-25T14:44:41;13.50;99.90
35894;DHT22;21994;48.204;16.516;2023-04-25T14:47:07;13.40;99.90
35894;DHT22;21994;48.204;16.516;2023-04-25T14:49:33;13.50;99.90
35894;DHT22;21994;48.204;16.516;2023-04-25T14:51:59;13.90;99.90
35894;DHT22;21994;48.204;16.516;2023-04-25T14:54:25;14.50;99.90
35894;DHT22;21994;48.204;16.516;2023-04-25T14:56:51;15.30;99.90
35894;DHT22;21994;48.204;16.516;2023-04-25T14:59:17;15.70;99.90
35894;DHT22;21994;48.204;16.516;2023-04-25T15:01:43;16.30;99.90
35894;DHT22;21994;48.204;16.516;2023-04-25T15:04:09;16.70;99.90
35894;DHT22;21994;48.204;16.516;2023-04-25T15:06:36;16.80;96.80
35894;DHT22;21994;48.204;16.516;2023-04-25T15:09:02;16.30;98.90
35894;DHT22;21994;48.204;16.516;2023-04-25T15:11:28;16.50;96.90
35894;DHT22;21994;48.204;16.516;2023-04-25T15:13:54;16.50;94.60
35894;DHT22;21994;48.204;16.516;2023-04-25T15:16:20;16.50;95.30
35894;DHT22;21994;48.204;16.516;2023-04-25T15:18:46;16.50;94.50
35894;DHT22;21994;48.204;16.516;2023-04-25T15:21:12;16.70;94.30
35894;DHT22;21994;48.204;16.516;2023-04-25T15:23:38;16.70;93.70
35894;DHT22;21994;48.204;16.516;2023-04-25T15:26:04;16.80;93.40